sensor_id;sensor_type;location;lat;lon;timestamp;P1;durP1;ratioP1;P2;durP2;ratioP2
6193;SDS011;3130;41.564;23.280;2023-07-16T00:01:53;11.52;;;7.10;;
6193;SDS011;3130;41.564;23.280;2023-07-16T00:04:20;7.53;;;6.25;;
6193;SDS011;3130;41.564;23.280;2023-07-16T00:06:47;7.35;;;6.43;;
6193;SDS011;3130;41.564;23.280;2023-07-16T00:09:14;10.02;;;7.63;;
6193;SDS011;3130;41.564;23.280;2023-07-16T00:11:41;9.55;;;6.43;;
6193;SDS011;3130;41.564;23.280;2023-07-16T00:14:09;7.43;;;6.63;;
6193;SDS011;3130;41.564;23.280;2023-07-16T00:16:37;9.93;;;6.93;;
6193;SDS011;3130;41.564;23.280;2023-07-16T00:19:05;11.05;;;7.20;;
6193;SDS011;3130;41.564;23.280;2023-07-16T00:21:32;12.38;;;6.93;;
6193;SDS011;3130;41.564;23.280;2023-07-16T00:23:59;9.10;;;7.13;;
6193;SDS011;3130;41.564;23.280;2023-07-16T00:26:26;8.65;;;7.55;;
6193;SDS011;3130;41.564;23.280;2023-07-16T00:28:53;11.27;;;7.40;;
6193;SDS011;3130;41.564;23.280;2023-07-16T00:31:21;14.80;;;6.93;;
6193;SDS011;3130;41.564;23.280;2023-07-16T00:33:48;8.80;;;7.45;;
6193;SDS011;3130;41.564;23.280;2023-07-16T00:36:16;8.95;;;6.50;;
6193;SDS011;3130;41.564;23.280;2023-07-16T00:38:44;12.77;;;8.52;;
6193;SDS011;3130;41.564;23.280;2023-07-16T00:41:12;10.07;;;7.03;;
6193;SDS011;3130;41.564;23.280;2023-07-16T00:43:39;11.55;;;6.93;;
6193;SDS011;3130;41.564;23.280;2023-07-16T00:46:06;9.27;;;7.25;;
6193;SDS011;3130;41.564;23.280;2023-07-16T00:48:35;10.20;;;6.90;;
6193;SDS011;3130;41.564;23.280;2023-07-16T00:51:02;10.60;;;7.60;;
6193;SDS011;3130;41.564;23.280;2023-07-16T00:53:32;14.32;;;8.00;;
6193;SDS011;3130;41.564;23.280;2023-07-16T00:55:59;13.85;;;8.40;;
6193;SDS011;3130;41.564;23.280;2023-07-16T00:58:26;12.70;;;7.75;;
6193;SDS011;3130;41.564;23.280;2023-07-16T01:00:53;8.82;;;7.13;;
6193;SDS011;3130;41.564;23.280;2023-07-16T01:03:21;10.88;;;8.00;;
6193;SDS011;3130;41.564;23.280;2023-07-16T01:05:49;9.43;;;7.95;;
6193;SDS011;3130;41.564;23.280;2023-07-16T01:08:26;10.93;;;7.72;;
6193;SDS011;3130;41.564;23.280;2023-07-16T01:11:00;12.75;;;8.07;;
6193;SDS011;3130;41.564;23.280;2023-07-16T01:13:28;9.23;;;7.45;;
6193;SDS011;3130;41.564;23.280;2023-07-16T01:15:56;10.73;;;7.20;;
6193;SDS011;3130;41.564;23.280;2023-07-16T01:18:23;11.23;;;7.55;;
6193;SDS011;3130;41.564;23.280;2023-07-16T01:20:50;13.27;;;7.72;;
6193;SDS011;3130;41.564;23.280;2023-07-16T01:23:26;10.52;;;7.13;;
6193;SDS011;3130;41.564;23.280;2023-07-16T01:26:08;12.07;;;8.63;;
6193;SDS011;3130;41.564;23.280;2023-07-16T01:28:53;11.82;;;8.30;;
6193;SDS011;3130;41.564;23.280;2023-07-16T01:31:42;12.25;;;8.10;;
6193;SDS011;3130;41.564;23.280;2023-07-16T01:34:12;9.27;;;8.20;;
6193;SDS011;3130;41.564;23.280;2023-07-16T01:36:41;10.82;;;8.57;;
6193;SDS011;3130;41.564;23.280;2023-07-16T01:39:09;11.07;;;8.25;;
6193;SDS011;3130;41.564;23.280;2023-07-16T01:41:36;12.07;;;9.55;;
6193;SDS011;3130;41.564;23.280;2023-07-16T01:44:04;12.77;;;8.85;;
6193;SDS011;3130;41.564;23.280;2023-07-16T01:46:32;10.23;;;8.10;;
6193;SDS011;3130;41.564;23.280;2023-07-16T01:48:59;14.35;;;8.05;;
6193;SDS011;3130;41.564;23.280;2023-07-16T01:51:27;9.65;;;8.68;;
6193;SDS011;3130;41.564;23.280;2023-07-16T01:53:54;13.80;;;9.18;;
6193;SDS011;3130;41.564;23.280;2023-07-16T01:56:21;11.82;;;9.45;;
6193;SDS011;3130;41.564;23.280;2023-07-16T01:58:48;9.38;;;8.30;;
6193;SDS011;3130;41.564;23.280;2023-07-16T02:01:15;10.90;;;8.02;;
6193;SDS011;3130;41.564;23.280;2023-07-16T02:03:44;10.93;;;7.93;;
6193;SDS011;3130;41.564;23.280;2023-07-16T02:06:11;16.85;;;8.70;;
6193;SDS011;3130;41.564;23.280;2023-07-16T02:08:39;11.88;;;8.70;;
6193;SDS011;3130;41.564;23.280;2023-07-16T02:11:06;11.75;;;8.57;;
6193;SDS011;3130;41.564;23.280;2023-07-16T02:13:33;10.55;;;8.15;;
6193;SDS011;3130;41.564;23.280;2023-07-16T02:16:00;10.82;;;8.15;;
6193;SDS011;3130;41.564;23.280;2023-07-16T02:18:27;13.23;;;8.52;;
6193;SDS011;3130;41.564;23.280;2023-07-16T02:20:55;12.52;;;9.10;;
6193;SDS011;3130;41.564;23.280;2023-07-16T02:23:22;12.95;;;8.90;;
6193;SDS011;3130;41.564;23.280;2023-07-16T02:25:49;12.30;;;8.57;;
6193;SDS011;3130;41.564;23.280;2023-07-16T02:28:16;11.50;;;8.63;;
6193;SDS011;3130;41.564;23.280;2023-07-16T02:30:44;11.63;;;8.75;;
6193;SDS011;3130;41.564;23.280;2023-07-16T02:33:11;10.10;;;9.05;;
6193;SDS011;3130;41.564;23.280;2023-07-16T02:35:38;11.02;;;8.52;;
6193;SDS011;3130;41.564;23.280;2023-07-16T02:38:06;11.60;;;8.30;;
6193;SDS011;3130;41.564;23.280;2023-07-16T02:40:33;12.68;;;9.02;;
6193;SDS011;3130;41.564;23.280;2023-07-16T02:43:00;9.48;;;8.45;;
6193;SDS011;3130;41.564;23.280;2023-07-16T02:45:27;11.43;;;8.10;;
6193;SDS011;3130;41.564;23.280;2023-07-16T02:47:55;11.63;;;8.50;;
6193;SDS011;3130;41.564;23.280;2023-07-16T02:50:22;9.55;;;8.18;;
6193;SDS011;3130;41.564;23.280;2023-07-16T02:52:49;11.30;;;9.15;;
6193;SDS011;3130;41.564;23.280;2023-07-16T02:55:17;11.98;;;8.48;;
6193;SDS011;3130;41.564;23.280;2023-07-16T02:57:45;10.20;;;8.23;;
6193;SDS011;3130;41.564;23.280;2023-07-16T03:00:12;13.55;;;8.75;;
6193;SDS011;3130;41.564;23.280;2023-07-16T03:02:40;9.73;;;8.25;;
6193;SDS011;3130;41.564;23.280;2023-07-16T03:05:07;12.23;;;7.57;;
6193;SDS011;3130;41.564;23.280;2023-07-16T03:07:34;10.48;;;7.80;;
6193;SDS011;3130;41.564;23.280;2023-07-16T03:10:01;12.80;;;7.93;;
6193;SDS011;3130;41.564;23.280;2023-07-16T03:12:30;13.40;;;7.88;;
6193;SDS011;3130;41.564;23.280;2023-07-16T03:14:57;11.48;;;8.10;;
6193;SDS011;3130;41.564;23.280;2023-07-16T03:17:24;11.45;;;8.00;;
6193;SDS011;3130;41.564;23.280;2023-07-16T03:19:51;12.65;;;8.45;;
6193;SDS011;3130;41.564;23.280;2023-07-16T03:22:18;11.93;;;8.02;;
6193;SDS011;3130;41.564;23.280;2023-07-16T03:24:45;9.60;;;8.23;;
6193;SDS011;3130;41.564;23.280;2023-07-16T03:27:12;13.32;;;8.95;;
6193;SDS011;3130;41.564;23.280;2023-07-16T03:29:41;11.45;;;8.43;;
6193;SDS011;3130;41.564;23.280;2023-07-16T03:32:08;10.98;;;9.00;;
6193;SDS011;3130;41.564;23.280;2023-07-16T03:34:35;10.73;;;8.93;;
6193;SDS011;3130;41.564;23.280;2023-07-16T03:37:02;10.63;;;8.25;;
6193;SDS011;3130;41.564;23.280;2023-07-16T03:39:30;12.90;;;9.70;;
6193;SDS011;3130;41.564;23.280;2023-07-16T03:41:57;13.37;;;9.23;;
6193;SDS011;3130;41.564;23.280;2023-07-16T03:44:24;10.13;;;9.03;;
6193;SDS011;3130;41.564;23.280;2023-07-16T03:46:52;14.23;;;9.13;;
6193;SDS011;3130;41.564;23.280;2023-07-16T03:49:19;10.20;;;8.17;;
6193;SDS011;3130;41.564;23.280;2023-07-16T03:51:46;11.03;;;8.67;;
6193;SDS011;3130;41.564;23.280;2023-07-16T03:54:14;16.40;;;9.47;;
6193;SDS011;3130;41.564;23.280;2023-07-16T03:56:41;10.97;;;9.00;;
6193;SDS011;3130;41.564;23.280;2023-07-16T03:59:08;12.17;;;9.30;;
6193;SDS011;3130;41.564;23.280;2023-07-16T04:01:35;13.03;;;9.43;;
6193;SDS011;3130;41.564;23.280;2023-07-16T04:04:03;10.73;;;9.13;;
6193;SDS011;3130;41.564;23.280;2023-07-16T04:06:30;13.50;;;10.07;;
6193;SDS011;3130;41.564;23.280;2023-07-16T04:08:57;13.93;;;9.47;;
6193;SDS011;3130;41.564;23.280;2023-07-16T04:11:25;10.20;;;9.10;;
6193;SDS011;3130;41.564;23.280;2023-07-16T04:13:52;13.10;;;9.97;;
6193;SDS011;3130;41.564;23.280;2023-07-16T04:16:19;12.10;;;9.63;;
6193;SDS011;3130;41.564;23.280;2023-07-16T04:18:46;15.13;;;9.10;;
6193;SDS011;3130;41.564;23.280;2023-07-16T04:21:15;10.33;;;9.23;;
6193;SDS011;3130;41.564;23.280;2023-07-16T04:23:42;11.27;;;8.53;;
6193;SDS011;3130;41.564;23.280;2023-07-16T04:26:09;12.80;;;9.90;;
6193;SDS011;3130;41.564;23.280;2023-07-16T04:28:36;12.53;;;9.80;;
6193;SDS011;3130;41.564;23.280;2023-07-16T04:31:04;10.27;;;9.17;;
6193;SDS011;3130;41.564;23.280;2023-07-16T04:33:31;15.27;;;10.13;;
6193;SDS011;3130;41.564;23.280;2023-07-16T04:35:58;12.63;;;9.60;;
6193;SDS011;3130;41.564;23.280;2023-07-16T04:38:27;12.77;;;8.97;;
6193;SDS011;3130;41.564;23.280;2023-07-16T04:40:54;15.60;;;9.87;;
6193;SDS011;3130;41.564;23.280;2023-07-16T04:43:21;12.05;;;9.40;;
6193;SDS011;3130;41.564;23.280;2023-07-16T04:45:48;11.65;;;9.25;;
6193;SDS011;3130;41.564;23.280;2023-07-16T04:48:16;13.27;;;9.77;;
6193;SDS011;3130;41.564;23.280;2023-07-16T04:50:43;12.23;;;10.10;;
6193;SDS011;3130;41.564;23.280;2023-07-16T04:53:10;16.70;;;10.48;;
6193;SDS011;3130;41.564;23.280;2023-07-16T04:55:39;12.52;;;10.73;;
6193;SDS011;3130;41.564;23.280;2023-07-16T04:58:06;13.68;;;10.57;;
6193;SDS011;3130;41.564;23.280;2023-07-16T05:00:33;14.88;;;11.23;;
6193;SDS011;3130;41.564;23.280;2023-07-16T05:03:00;16.38;;;10.05;;
6193;SDS011;3130;41.564;23.280;2023-07-16T05:05:28;12.63;;;10.15;;
6193;SDS011;3130;41.564;23.280;2023-07-16T05:07:55;13.77;;;10.05;;
6193;SDS011;3130;41.564;23.280;2023-07-16T05:10:22;16.52;;;10.93;;
6193;SDS011;3130;41.564;23.280;2023-07-16T05:12:51;14.43;;;10.88;;
6193;SDS011;3130;41.564;23.280;2023-07-16T05:15:18;12.90;;;10.35;;
6193;SDS011;3130;41.564;23.280;2023-07-16T05:17:45;17.20;;;11.70;;
6193;SDS011;3130;41.564;23.280;2023-07-16T05:20:12;13.15;;;10.25;;
6193;SDS011;3130;41.564;23.280;2023-07-16T05:22:39;13.27;;;9.98;;
6193;SDS011;3130;41.564;23.280;2023-07-16T05:25:06;14.90;;;9.93;;
6193;SDS011;3130;41.564;23.280;2023-07-16T05:27:34;13.05;;;10.07;;
6193;SDS011;3130;41.564;23.280;2023-07-16T05:30:03;12.32;;;9.60;;
6193;SDS011;3130;41.564;23.280;2023-07-16T05:32:31;11.63;;;10.07;;
6193;SDS011;3130;41.564;23.280;2023-07-16T05:34:58;14.13;;;10.68;;
6193;SDS011;3130;41.564;23.280;2023-07-16T05:37:25;10.98;;;8.75;;
6193;SDS011;3130;41.564;23.280;2023-07-16T05:39:53;12.55;;;9.80;;
6193;SDS011;3130;41.564;23.280;2023-07-16T05:42:20;10.27;;;8.00;;
6193;SDS011;3130;41.564;23.280;2023-07-16T05:44:47;9.27;;;7.07;;
6193;SDS011;3130;41.564;23.280;2023-07-16T05:47:15;11.18;;;7.45;;
6193;SDS011;3130;41.564;23.280;2023-07-16T05:49:42;9.43;;;7.93;;
6193;SDS011;3130;41.564;23.280;2023-07-16T05:52:10;9.65;;;7.10;;
6193;SDS011;3130;41.564;23.280;2023-07-16T05:54:37;12.65;;;8.32;;
6193;SDS011;3130;41.564;23.280;2023-07-16T05:57:04;10.57;;;7.60;;
6193;SDS011;3130;41.564;23.280;2023-07-16T05:59:32;10.05;;;8.30;;
6193;SDS011;3130;41.564;23.280;2023-07-16T06:02:01;12.30;;;8.25;;
6193;SDS011;3130;41.564;23.280;2023-07-16T06:04:30;10.23;;;8.02;;
6193;SDS011;3130;41.564;23.280;2023-07-16T06:06:58;9.77;;;8.07;;
6193;SDS011;3130;41.564;23.280;2023-07-16T06:09:25;10.07;;;8.50;;
6193;SDS011;3130;41.564;23.280;2023-07-16T06:11:52;10.85;;;8.10;;
6193;SDS011;3130;41.564;23.280;2023-07-16T06:14:19;11.82;;;7.72;;
6193;SDS011;3130;41.564;23.280;2023-07-16T06:16:46;12.95;;;8.82;;
6193;SDS011;3130;41.564;23.280;2023-07-16T06:19:14;8.50;;;6.75;;
6193;SDS011;3130;41.564;23.280;2023-07-16T06:21:42;7.28;;;6.15;;
6193;SDS011;3130;41.564;23.280;2023-07-16T06:24:09;11.25;;;6.93;;
6193;SDS011;3130;41.564;23.280;2023-07-16T06:26:37;9.73;;;6.72;;
6193;SDS011;3130;41.564;23.280;2023-07-16T06:29:04;9.38;;;6.97;;
6193;SDS011;3130;41.564;23.280;2023-07-16T06:31:31;7.38;;;6.50;;
6193;SDS011;3130;41.564;23.280;2023-07-16T06:33:58;10.32;;;6.90;;
6193;SDS011;3130;41.564;23.280;2023-07-16T06:36:25;11.50;;;6.82;;
6193;SDS011;3130;41.564;23.280;2023-07-16T06:38:54;10.65;;;7.70;;
6193;SDS011;3130;41.564;23.280;2023-07-16T06:41:21;9.35;;;6.85;;
6193;SDS011;3130;41.564;23.280;2023-07-16T06:43:48;10.15;;;7.30;;
6193;SDS011;3130;41.564;23.280;2023-07-16T06:46:15;9.18;;;6.28;;
6193;SDS011;3130;41.564;23.280;2023-07-16T06:48:43;8.65;;;6.60;;
6193;SDS011;3130;41.564;23.280;2023-07-16T06:51:10;9.00;;;6.53;;
6193;SDS011;3130;41.564;23.280;2023-07-16T06:53:37;10.23;;;6.85;;
6193;SDS011;3130;41.564;23.280;2023-07-16T06:56:06;9.50;;;7.30;;
6193;SDS011;3130;41.564;23.280;2023-07-16T06:58:33;10.43;;;6.30;;
6193;SDS011;3130;41.564;23.280;2023-07-16T07:01:00;10.85;;;6.80;;
6193;SDS011;3130;41.564;23.280;2023-07-16T07:03:27;7.80;;;6.43;;
6193;SDS011;3130;41.564;23.280;2023-07-16T07:05:54;7.88;;;6.68;;
6193;SDS011;3130;41.564;23.280;2023-07-16T07:08:21;8.40;;;7.50;;
6193;SDS011;3130;41.564;23.280;2023-07-16T07:10:49;9.88;;;7.30;;
6193;SDS011;3130;41.564;23.280;2023-07-16T07:13:17;9.00;;;6.75;;
6193;SDS011;3130;41.564;23.280;2023-07-16T07:15:44;10.38;;;6.80;;
6193;SDS011;3130;41.564;23.280;2023-07-16T07:18:11;9.43;;;6.85;;
6193;SDS011;3130;41.564;23.280;2023-07-16T07:20:39;9.55;;;6.82;;
6193;SDS011;3130;41.564;23.280;2023-07-16T07:23:06;9.95;;;6.57;;
6193;SDS011;3130;41.564;23.280;2023-07-16T07:25:33;8.90;;;6.75;;
6193;SDS011;3130;41.564;23.280;2023-07-16T07:28:00;8.02;;;6.97;;
6193;SDS011;3130;41.564;23.280;2023-07-16T07:30:29;8.63;;;7.30;;
6193;SDS011;3130;41.564;23.280;2023-07-16T07:32:56;12.52;;;6.95;;
6193;SDS011;3130;41.564;23.280;2023-07-16T07:35:23;7.70;;;6.80;;
6193;SDS011;3130;41.564;23.280;2023-07-16T07:37:50;7.85;;;6.75;;
6193;SDS011;3130;41.564;23.280;2023-07-16T07:40:17;14.23;;;8.23;;
6193;SDS011;3130;41.564;23.280;2023-07-16T07:42:45;8.98;;;7.13;;
6193;SDS011;3130;41.564;23.280;2023-07-16T07:45:12;8.82;;;7.30;;
6193;SDS011;3130;41.564;23.280;2023-07-16T07:47:41;7.82;;;6.68;;
6193;SDS011;3130;41.564;23.280;2023-07-16T07:50:08;11.50;;;7.90;;
6193;SDS011;3130;41.564;23.280;2023-07-16T07:52:36;8.35;;;7.50;;
6193;SDS011;3130;41.564;23.280;2023-07-16T07:55:04;8.55;;;7.43;;
6193;SDS011;3130;41.564;23.280;2023-07-16T07:57:31;8.55;;;6.95;;
6193;SDS011;3130;41.564;23.280;2023-07-16T07:59:58;9.23;;;7.88;;
6193;SDS011;3130;41.564;23.280;2023-07-16T08:02:25;10.10;;;7.13;;
6193;SDS011;3130;41.564;23.280;2023-07-16T08:04:54;8.75;;;7.13;;
6193;SDS011;3130;41.564;23.280;2023-07-16T08:07:21;7.60;;;6.20;;
6193;SDS011;3130;41.564;23.280;2023-07-16T08:09:49;15.32;;;6.88;;
6193;SDS011;3130;41.564;23.280;2023-07-16T08:12:16;11.00;;;6.75;;
6193;SDS011;3130;41.564;23.280;2023-07-16T08:14:43;7.82;;;6.75;;
6193;SDS011;3130;41.564;23.280;2023-07-16T08:17:10;7.90;;;6.82;;
6193;SDS011;3130;41.564;23.280;2023-07-16T08:19:38;9.70;;;7.28;;
6193;SDS011;3130;41.564;23.280;2023-07-16T08:22:06;7.80;;;6.70;;
6193;SDS011;3130;41.564;23.280;2023-07-16T08:24:33;8.10;;;5.82;;
6193;SDS011;3130;41.564;23.280;2023-07-16T08:27:00;7.55;;;6.50;;
6193;SDS011;3130;41.564;23.280;2023-07-16T08:29:27;6.88;;;6.18;;
6193;SDS011;3130;41.564;23.280;2023-07-16T08:31:54;10.27;;;6.80;;
6193;SDS011;3130;41.564;23.280;2023-07-16T08:34:21;9.98;;;7.10;;
6193;SDS011;3130;41.564;23.280;2023-07-16T08:36:48;9.23;;;7.07;;
6193;SDS011;3130;41.564;23.280;2023-07-16T08:39:17;8.85;;;6.50;;
6193;SDS011;3130;41.564;23.280;2023-07-16T08:41:45;8.45;;;6.38;;
6193;SDS011;3130;41.564;23.280;2023-07-16T08:44:13;9.98;;;7.38;;
6193;SDS011;3130;41.564;23.280;2023-07-16T08:46:40;9.43;;;7.30;;
6193;SDS011;3130;41.564;23.280;2023-07-16T08:49:07;11.15;;;6.72;;
6193;SDS011;3130;41.564;23.280;2023-07-16T08:51:34;10.10;;;7.38;;
6193;SDS011;3130;41.564;23.280;2023-07-16T08:54:04;8.63;;;7.78;;
6193;SDS011;3130;41.564;23.280;2023-07-16T08:56:32;7.45;;;6.43;;
6193;SDS011;3130;41.564;23.280;2023-07-16T08:58:59;8.98;;;7.50;;
6193;SDS011;3130;41.564;23.280;2023-07-16T09:01:27;8.13;;;6.95;;
6193;SDS011;3130;41.564;23.280;2023-07-16T09:03:54;7.72;;;6.45;;
6193;SDS011;3130;41.564;23.280;2023-07-16T09:06:22;11.65;;;8.20;;
6193;SDS011;3130;41.564;23.280;2023-07-16T09:08:49;8.88;;;6.68;;
6193;SDS011;3130;41.564;23.280;2023-07-16T09:11:17;9.95;;;7.53;;
6193;SDS011;3130;41.564;23.280;2023-07-16T09:13:48;8.55;;;7.28;;
6193;SDS011;3130;41.564;23.280;2023-07-16T09:16:17;12.60;;;7.13;;
6193;SDS011;3130;41.564;23.280;2023-07-16T09:18:44;8.60;;;7.32;;
6193;SDS011;3130;41.564;23.280;2023-07-16T09:21:11;8.30;;;6.85;;
6193;SDS011;3130;41.564;23.280;2023-07-16T09:23:39;8.13;;;6.38;;
6193;SDS011;3130;41.564;23.280;2023-07-16T09:26:07;10.40;;;6.68;;
6193;SDS011;3130;41.564;23.280;2023-07-16T09:28:34;9.32;;;6.88;;
6193;SDS011;3130;41.564;23.280;2023-07-16T09:31:05;8.48;;;7.57;;
6193;SDS011;3130;41.564;23.280;2023-07-16T09:33:33;8.80;;;6.05;;
6193;SDS011;3130;41.564;23.280;2023-07-16T09:36:01;8.63;;;6.30;;
6193;SDS011;3130;41.564;23.280;2023-07-16T09:38:29;8.07;;;6.85;;
6193;SDS011;3130;41.564;23.280;2023-07-16T09:40:58;11.05;;;6.75;;
6193;SDS011;3130;41.564;23.280;2023-07-16T09:43:26;7.63;;;6.20;;
6193;SDS011;3130;41.564;23.280;2023-07-16T09:45:53;8.38;;;6.50;;
6193;SDS011;3130;41.564;23.280;2023-07-16T09:48:21;8.43;;;6.15;;
6193;SDS011;3130;41.564;23.280;2023-07-16T09:50:50;7.15;;;6.15;;
6193;SDS011;3130;41.564;23.280;2023-07-16T09:53:19;7.97;;;6.30;;
6193;SDS011;3130;41.564;23.280;2023-07-16T09:55:47;10.60;;;6.95;;
6193;SDS011;3130;41.564;23.280;2023-07-16T09:58:15;9.55;;;7.25;;
6193;SDS011;3130;41.564;23.280;2023-07-16T10:00:44;10.35;;;6.85;;
6193;SDS011;3130;41.564;23.280;2023-07-16T10:03:14;9.73;;;7.38;;
6193;SDS011;3130;41.564;23.280;2023-07-16T10:05:43;10.70;;;7.93;;
6193;SDS011;3130;41.564;23.280;2023-07-16T10:08:16;9.90;;;7.60;;
6193;SDS011;3130;41.564;23.280;2023-07-16T10:10:46;8.20;;;7.10;;
6193;SDS011;3130;41.564;23.280;2023-07-16T10:13:16;14.05;;;7.38;;
6193;SDS011;3130;41.564;23.280;2023-07-16T10:15:53;10.18;;;7.47;;
6193;SDS011;3130;41.564;23.280;2023-07-16T10:18:29;10.40;;;7.78;;
6193;SDS011;3130;41.564;23.280;2023-07-16T10:21:02;10.65;;;8.38;;
6193;SDS011;3130;41.564;23.280;2023-07-16T10:23:37;12.35;;;7.60;;
6193;SDS011;3130;41.564;23.280;2023-07-16T10:26:06;11.27;;;8.02;;
6193;SDS011;3130;41.564;23.280;2023-07-16T10:28:35;11.45;;;8.52;;
6193;SDS011;3130;41.564;23.280;2023-07-16T10:31:02;8.45;;;7.65;;
6193;SDS011;3130;41.564;23.280;2023-07-16T10:33:30;9.88;;;8.88;;
6193;SDS011;3130;41.564;23.280;2023-07-16T10:35:57;9.88;;;8.73;;
6193;SDS011;3130;41.564;23.280;2023-07-16T10:38:26;11.70;;;9.25;;
6193;SDS011;3130;41.564;23.280;2023-07-16T10:40:53;10.95;;;8.90;;
6193;SDS011;3130;41.564;23.280;2023-07-16T10:43:23;12.38;;;9.30;;
6193;SDS011;3130;41.564;23.280;2023-07-16T10:45:50;11.68;;;8.00;;
6193;SDS011;3130;41.564;23.280;2023-07-16T10:48:17;10.52;;;9.52;;
6193;SDS011;3130;41.564;23.280;2023-07-16T10:50:53;12.18;;;9.05;;
6193;SDS011;3130;41.564;23.280;2023-07-16T10:53:20;10.40;;;9.10;;
6193;SDS011;3130;41.564;23.280;2023-07-16T10:55:48;13.00;;;9.15;;
6193;SDS011;3130;41.564;23.280;2023-07-16T10:58:16;11.10;;;9.43;;
6193;SDS011;3130;41.564;23.280;2023-07-16T11:00:43;10.45;;;8.05;;
6193;SDS011;3130;41.564;23.280;2023-07-16T11:03:14;10.50;;;7.82;;
6193;SDS011;3130;41.564;23.280;2023-07-16T11:05:41;10.70;;;8.48;;
6193;SDS011;3130;41.564;23.280;2023-07-16T11:08:21;12.93;;;9.55;;
6193;SDS011;3130;41.564;23.280;2023-07-16T11:10:54;11.82;;;9.35;;
6193;SDS011;3130;41.564;23.280;2023-07-16T11:13:24;12.23;;;9.85;;
6193;SDS011;3130;41.564;23.280;2023-07-16T11:15:52;13.75;;;9.15;;
6193;SDS011;3130;41.564;23.280;2023-07-16T11:18:21;14.10;;;9.52;;
6193;SDS011;3130;41.564;23.280;2023-07-16T11:20:51;14.52;;;10.10;;
6193;SDS011;3130;41.564;23.280;2023-07-16T11:23:19;14.18;;;9.57;;
6193;SDS011;3130;41.564;23.280;2023-07-16T11:25:46;11.25;;;8.90;;
6193;SDS011;3130;41.564;23.280;2023-07-16T11:28:15;11.75;;;9.35;;
6193;SDS011;3130;41.564;23.280;2023-07-16T11:30:42;13.68;;;9.25;;
6193;SDS011;3130;41.564;23.280;2023-07-16T11:33:09;11.65;;;9.45;;
6193;SDS011;3130;41.564;23.280;2023-07-16T11:35:37;13.60;;;9.65;;
6193;SDS011;3130;41.564;23.280;2023-07-16T11:38:05;15.13;;;8.80;;
6193;SDS011;3130;41.564;23.280;2023-07-16T11:40:33;10.48;;;8.35;;
6193;SDS011;3130;41.564;23.280;2023-07-16T11:43:07;12.30;;;9.05;;
6193;SDS011;3130;41.564;23.280;2023-07-16T11:45:37;10.00;;;8.18;;
6193;SDS011;3130;41.564;23.280;2023-07-16T11:48:05;9.50;;;8.65;;
6193;SDS011;3130;41.564;23.280;2023-07-16T11:50:32;11.27;;;8.90;;
6193;SDS011;3130;41.564;23.280;2023-07-16T11:53:00;12.27;;;8.88;;
6193;SDS011;3130;41.564;23.280;2023-07-16T11:55:27;12.38;;;9.30;;
6193;SDS011;3130;41.564;23.280;2023-07-16T11:57:54;11.80;;;8.75;;
6193;SDS011;3130;41.564;23.280;2023-07-16T12:00:24;10.98;;;7.90;;
6193;SDS011;3130;41.564;23.280;2023-07-16T12:02:53;10.60;;;8.20;;
6193;SDS011;3130;41.564;23.280;2023-07-16T12:05:21;10.80;;;8.98;;
6193;SDS011;3130;41.564;23.280;2023-07-16T12:07:51;10.52;;;9.15;;
6193;SDS011;3130;41.564;23.280;2023-07-16T12:10:18;11.57;;;9.20;;
6193;SDS011;3130;41.564;23.280;2023-07-16T12:12:46;11.95;;;8.80;;
6193;SDS011;3130;41.564;23.280;2023-07-16T12:15:13;14.18;;;8.50;;
6193;SDS011;3130;41.564;23.280;2023-07-16T12:17:40;10.88;;;8.32;;
6193;SDS011;3130;41.564;23.280;2023-07-16T12:20:09;9.85;;;8.85;;
6193;SDS011;3130;41.564;23.280;2023-07-16T12:22:37;11.00;;;9.15;;
6193;SDS011;3130;41.564;23.280;2023-07-16T12:25:04;11.45;;;8.45;;
6193;SDS011;3130;41.564;23.280;2023-07-16T12:27:32;9.82;;;8.60;;
6193;SDS011;3130;41.564;23.280;2023-07-16T12:29:59;13.02;;;8.38;;
6193;SDS011;3130;41.564;23.280;2023-07-16T12:32:26;13.32;;;9.05;;
6193;SDS011;3130;41.564;23.280;2023-07-16T12:34:53;9.63;;;8.25;;
6193;SDS011;3130;41.564;23.280;2023-07-16T12:37:21;10.05;;;7.85;;
6193;SDS011;3130;41.564;23.280;2023-07-16T12:39:49;11.68;;;8.02;;
6193;SDS011;3130;41.564;23.280;2023-07-16T12:42:16;11.30;;;8.18;;
6193;SDS011;3130;41.564;23.280;2023-07-16T12:44:43;11.43;;;8.73;;
6193;SDS011;3130;41.564;23.280;2023-07-16T12:47:11;11.90;;;8.48;;
6193;SDS011;3130;41.564;23.280;2023-07-16T12:49:38;10.73;;;8.98;;
6193;SDS011;3130;41.564;23.280;2023-07-16T12:52:06;10.55;;;8.30;;
6193;SDS011;3130;41.564;23.280;2023-07-16T12:54:35;14.00;;;8.52;;
6193;SDS011;3130;41.564;23.280;2023-07-16T12:57:03;12.35;;;10.48;;
6193;SDS011;3130;41.564;23.280;2023-07-16T12:59:30;11.38;;;9.77;;
6193;SDS011;3130;41.564;23.280;2023-07-16T13:01:57;9.32;;;8.00;;
6193;SDS011;3130;41.564;23.280;2023-07-16T13:04:24;11.20;;;8.27;;
6193;SDS011;3130;41.564;23.280;2023-07-16T13:06:51;11.63;;;8.27;;
6193;SDS011;3130;41.564;23.280;2023-07-16T13:09:19;12.73;;;8.80;;
6193;SDS011;3130;41.564;23.280;2023-07-16T13:11:47;10.55;;;8.93;;
6193;SDS011;3130;41.564;23.280;2023-07-16T13:14:14;11.40;;;8.45;;
6193;SDS011;3130;41.564;23.280;2023-07-16T13:16:41;12.85;;;8.10;;
6193;SDS011;3130;41.564;23.280;2023-07-16T13:19:08;9.18;;;8.18;;
6193;SDS011;3130;41.564;23.280;2023-07-16T13:21:35;9.95;;;8.45;;
6193;SDS011;3130;41.564;23.280;2023-07-16T13:24:03;11.88;;;8.63;;
6193;SDS011;3130;41.564;23.280;2023-07-16T13:26:30;11.00;;;8.95;;
6193;SDS011;3130;41.564;23.280;2023-07-16T13:28:59;13.23;;;8.63;;
6193;SDS011;3130;41.564;23.280;2023-07-16T13:31:26;9.68;;;8.32;;
6193;SDS011;3130;41.564;23.280;2023-07-16T13:33:53;14.00;;;9.57;;
6193;SDS011;3130;41.564;23.280;2023-07-16T13:36:20;14.75;;;9.13;;
6193;SDS011;3130;41.564;23.280;2023-07-16T13:38:47;13.93;;;9.80;;
6193;SDS011;3130;41.564;23.280;2023-07-16T13:41:15;9.90;;;8.90;;
6193;SDS011;3130;41.564;23.280;2023-07-16T13:43:42;13.05;;;9.25;;
6193;SDS011;3130;41.564;23.280;2023-07-16T13:46:10;11.50;;;9.40;;
6193;SDS011;3130;41.564;23.280;2023-07-16T13:48:37;11.48;;;9.60;;
6193;SDS011;3130;41.564;23.280;2023-07-16T13:51:04;11.40;;;9.48;;
6193;SDS011;3130;41.564;23.280;2023-07-16T13:53:31;10.57;;;9.13;;
6193;SDS011;3130;41.564;23.280;2023-07-16T13:55:59;13.15;;;9.35;;
6193;SDS011;3130;41.564;23.280;2023-07-16T13:58:26;10.07;;;8.73;;
6193;SDS011;3130;41.564;23.280;2023-07-16T14:00:53;9.82;;;8.82;;
6193;SDS011;3130;41.564;23.280;2023-07-16T14:03:21;13.40;;;9.43;;
6193;SDS011;3130;41.564;23.280;2023-07-16T14:05:48;12.15;;;9.38;;
6193;SDS011;3130;41.564;23.280;2023-07-16T14:08:15;11.80;;;9.07;;
6193;SDS011;3130;41.564;23.280;2023-07-16T14:10:42;15.13;;;9.32;;
6193;SDS011;3130;41.564;23.280;2023-07-16T14:13:11;10.90;;;8.80;;
6193;SDS011;3130;41.564;23.280;2023-07-16T14:15:41;9.82;;;8.45;;
6193;SDS011;3130;41.564;23.280;2023-07-16T14:18:08;12.10;;;8.57;;
6193;SDS011;3130;41.564;23.280;2023-07-16T14:20:36;12.45;;;8.93;;
6193;SDS011;3130;41.564;23.280;2023-07-16T14:23:05;11.07;;;9.20;;
6193;SDS011;3130;41.564;23.280;2023-07-16T14:25:32;13.10;;;8.90;;
6193;SDS011;3130;41.564;23.280;2023-07-16T14:27:59;13.23;;;8.65;;
6193;SDS011;3130;41.564;23.280;2023-07-16T14:30:26;10.80;;;9.50;;
6193;SDS011;3130;41.564;23.280;2023-07-16T14:32:54;10.90;;;8.45;;
6193;SDS011;3130;41.564;23.280;2023-07-16T14:35:22;11.65;;;9.02;;
6193;SDS011;3130;41.564;23.280;2023-07-16T14:37:50;9.10;;;8.00;;
6193;SDS011;3130;41.564;23.280;2023-07-16T14:40:17;10.13;;;8.55;;
6193;SDS011;3130;41.564;23.280;2023-07-16T14:42:44;12.07;;;8.73;;
6193;SDS011;3130;41.564;23.280;2023-07-16T14:45:12;10.23;;;9.13;;
6193;SDS011;3130;41.564;23.280;2023-07-16T14:47:40;10.68;;;9.57;;
6193;SDS011;3130;41.564;23.280;2023-07-16T14:50:07;13.68;;;9.07;;
6193;SDS011;3130;41.564;23.280;2023-07-16T14:52:35;9.98;;;8.93;;
6193;SDS011;3130;41.564;23.280;2023-07-16T14:55:05;10.95;;;8.85;;